createdAt,value
2022-11-16T00:00:46.915Z,100.00
2022-11-16T00:01:43.456Z,100.00
2022-11-16T00:02:40.002Z,100.00
2022-11-16T00:03:36.433Z,100.00
2022-11-16T00:04:32.992Z,100.00
2022-11-16T00:05:29.597Z,100.00
2022-11-16T00:06:26.547Z,100.00
2022-11-16T00:07:23.076Z,100.00
2022-11-16T00:08:19.557Z,100.00
2022-11-16T00:09:27.145Z,100.00
2022-11-16T00:10:23.765Z,100.00
2022-11-16T00:11:20.229Z,100.00
2022-11-16T00:12:16.701Z,100.00
2022-11-16T00:13:13.120Z,100.00
2022-11-16T00:14:09.675Z,100.00
2022-11-16T00:15:07.806Z,100.00
2022-11-16T00:16:04.792Z,100.00
2022-11-16T00:17:01.511Z,100.00
2022-11-16T00:17:57.994Z,100.00
2022-11-16T00:18:58.763Z,100.00
2022-11-16T00:19:55.183Z,100.00
2022-11-16T00:20:51.849Z,100.00
2022-11-16T00:21:48.308Z,100.00
2022-11-16T00:22:44.884Z,100.00
2022-11-16T00:23:41.327Z,100.00
2022-11-16T00:24:37.844Z,100.00
2022-11-16T00:25:34.751Z,100.00
2022-11-16T00:26:31.592Z,100.00
2022-11-16T00:27:28.081Z,100.00
2022-11-16T00:28:24.565Z,100.00
2022-11-16T00:29:22.389Z,100.00
2022-11-16T00:30:18.896Z,100.00
2022-11-16T00:31:15.481Z,100.00
2022-11-16T00:32:12.495Z,100.00
2022-11-16T00:33:13.440Z,100.00
2022-11-16T00:34:09.944Z,100.00
2022-11-16T00:35:06.689Z,100.00
2022-11-16T00:36:04.411Z,100.00
2022-11-16T00:37:00.928Z,100.00
2022-11-16T00:37:57.648Z,100.00
2022-11-16T00:38:54.201Z,100.00
2022-11-16T00:39:50.644Z,100.00
2022-11-16T00:40:47.110Z,100.00
2022-11-16T00:41:44.110Z,100.00
2022-11-16T00:42:40.558Z,100.00
2022-11-16T00:43:37.598Z,100.00
2022-11-16T00:44:34.102Z,100.00
2022-11-16T00:45:30.624Z,100.00
2022-11-16T00:46:27.092Z,100.00
2022-11-16T00:47:23.951Z,100.00
2022-11-16T00:48:21.047Z,100.00
2022-11-16T00:49:17.524Z,100.00
2022-11-16T00:50:14.036Z,100.00
2022-11-16T00:51:10.553Z,100.00
2022-11-16T00:52:07.031Z,100.00
2022-11-16T00:53:04.045Z,100.00
2022-11-16T00:54:01.010Z,100.00
2022-11-16T00:54:57.458Z,100.00
2022-11-16T00:55:53.904Z,100.00
2022-11-16T00:56:50.366Z,100.00
2022-11-16T00:57:46.858Z,100.00
2022-11-16T00:58:43.495Z,100.00
2022-11-16T00:59:39.949Z,100.00
2022-11-16T01:00:36.405Z,100.00
2022-11-16T01:01:33.164Z,100.00
2022-11-16T01:02:29.654Z,100.00
2022-11-16T01:03:26.088Z,100.00
2022-11-16T01:04:22.537Z,100.00
2022-11-16T01:05:19.006Z,100.00
2022-11-16T01:06:16.029Z,100.00
2022-11-16T01:07:12.584Z,100.00
2022-11-16T01:08:09.242Z,100.00
2022-11-16T01:09:05.750Z,100.00
2022-11-16T01:10:04.249Z,100.00
2022-11-16T01:11:20.645Z,100.00
2022-11-16T01:12:17.263Z,100.00
2022-11-16T01:13:13.730Z,100.00
2022-11-16T01:14:10.886Z,100.00
2022-11-16T01:15:09.145Z,100.00
2022-11-16T01:16:05.644Z,100.00
2022-11-16T01:17:02.144Z,99.89
2022-11-16T01:17:58.605Z,99.56
2022-11-16T01:18:55.270Z,99.25
2022-11-16T01:19:51.805Z,98.94
2022-11-16T01:20:48.331Z,98.74
2022-11-16T01:21:44.801Z,98.24
2022-11-16T01:22:41.348Z,98.45
2022-11-16T01:23:37.804Z,97.99
2022-11-16T01:24:34.382Z,97.53
2022-11-16T01:25:30.846Z,97.88
2022-11-16T01:26:27.408Z,98.17
2022-11-16T01:27:23.901Z,97.34
2022-11-16T01:28:20.377Z,97.53
2022-11-16T01:29:17.072Z,97.88
2022-11-16T01:30:14.463Z,98.39
2022-11-16T01:31:11.242Z,98.24
2022-11-16T01:32:07.747Z,99.12
2022-11-16T01:33:04.232Z,99.57
2022-11-16T01:34:00.730Z,99.61
2022-11-16T01:34:57.234Z,99.45
2022-11-16T01:35:53.759Z,100.00
2022-11-16T01:36:50.352Z,99.67
2022-11-16T01:37:46.889Z,99.77
2022-11-16T01:38:44.298Z,99.84
2022-11-16T01:39:40.724Z,99.89
2022-11-16T01:40:38.007Z,100.00
2022-11-16T01:41:34.678Z,99.51
2022-11-16T01:42:31.999Z,99.79
2022-11-16T01:43:28.551Z,100.00
2022-11-16T01:44:33.943Z,99.86
2022-11-16T01:45:41.296Z,99.67
2022-11-16T01:46:37.771Z,99.77
2022-11-16T01:47:34.331Z,99.89
2022-11-16T01:48:30.958Z,99.67
2022-11-16T01:49:29.121Z,99.24
2022-11-16T01:50:25.768Z,99.05
2022-11-16T01:51:22.597Z,100.00
2022-11-16T01:52:20.494Z,100.00
2022-11-16T01:53:17.053Z,100.00
2022-11-16T01:54:13.899Z,99.69
2022-11-16T01:55:11.265Z,99.88
2022-11-16T01:56:08.509Z,99.65
2022-11-16T01:57:07.905Z,100.00
2022-11-16T01:58:04.573Z,100.00
2022-11-16T01:59:01.086Z,100.00
2022-11-16T01:59:59.091Z,100.00
2022-11-16T02:00:55.587Z,100.00
2022-11-16T02:01:52.332Z,100.00
2022-11-16T02:02:48.925Z,100.00
2022-11-16T02:03:45.431Z,100.00
2022-11-16T02:04:42.135Z,100.00
2022-11-16T02:06:08.036Z,100.00
2022-11-16T02:07:07.595Z,99.94
2022-11-16T02:08:41.589Z,99.26
2022-11-16T02:09:57.268Z,99.50
2022-11-16T02:10:59.700Z,99.11
2022-11-16T02:11:58.950Z,99.12
2022-11-16T02:13:24.913Z,98.43
2022-11-16T02:14:21.374Z,98.64
2022-11-16T02:15:24.087Z,98.92
2022-11-16T02:16:30.212Z,98.46
2022-11-16T02:17:45.543Z,99.40
2022-11-16T02:19:01.106Z,99.03
2022-11-16T02:20:24.544Z,99.71
2022-11-16T02:21:24.050Z,99.50
2022-11-16T02:22:53.065Z,100.00
2022-11-16T02:24:08.070Z,100.00
2022-11-16T02:25:16.817Z,100.00
2022-11-16T02:26:13.263Z,100.00
2022-11-16T02:27:31.868Z,100.00
2022-11-16T02:28:28.455Z,100.00
2022-11-16T02:29:41.271Z,100.00
2022-11-16T02:30:40.489Z,100.00
2022-11-16T02:31:40.863Z,100.00
2022-11-16T02:32:39.823Z,100.00
2022-11-16T02:33:38.243Z,100.00
2022-11-16T02:34:38.555Z,100.00
2022-11-16T02:35:39.056Z,100.00
2022-11-16T02:36:37.836Z,100.00
2022-11-16T02:37:36.502Z,100.00
2022-11-16T02:38:36.241Z,100.00
2022-11-16T02:39:34.552Z,100.00
2022-11-16T02:40:31.838Z,100.00
2022-11-16T02:41:31.957Z,100.00
2022-11-16T02:42:34.488Z,100.00
2022-11-16T02:43:34.237Z,100.00
2022-11-16T02:44:35.737Z,100.00
2022-11-16T02:45:33.787Z,100.00
2022-11-16T02:46:33.184Z,100.00
2022-11-16T02:47:31.764Z,100.00
2022-11-16T02:48:35.233Z,100.00
2022-11-16T02:49:35.028Z,100.00
2022-11-16T02:50:32.829Z,100.00
2022-11-16T02:51:29.550Z,100.00
2022-11-16T02:52:28.499Z,100.00
2022-11-16T02:53:25.317Z,100.00
2022-11-16T02:54:24.592Z,99.68
2022-11-16T02:55:21.639Z,99.51
2022-11-16T02:56:18.425Z,99.68
2022-11-16T02:57:24.886Z,99.42
2022-11-16T02:58:23.114Z,99.54
2022-11-16T02:59:19.959Z,99.40
2022-11-16T03:00:33.853Z,99.24
2022-11-16T03:01:36.466Z,99.85
2022-11-16T03:02:33.027Z,100.00
2022-11-16T03:03:29.711Z,100.00
2022-11-16T03:04:46.850Z,100.00
2022-11-16T03:05:46.067Z,99.89
2022-11-16T03:06:43.849Z,100.00
2022-11-16T03:07:52.364Z,100.00
2022-11-16T03:08:56.869Z,100.00
2022-11-16T03:09:55.078Z,100.00
2022-11-16T03:11:15.327Z,100.00
2022-11-16T03:12:14.327Z,100.00
2022-11-16T03:13:13.459Z,100.00
2022-11-16T03:14:13.740Z,100.00
2022-11-16T03:15:11.807Z,100.00
2022-11-16T03:16:11.617Z,100.00
2022-11-16T03:17:11.395Z,100.00
2022-11-16T03:18:08.756Z,100.00
2022-11-16T03:19:10.646Z,100.00
2022-11-16T03:20:09.699Z,99.83
2022-11-16T03:21:10.453Z,99.36
2022-11-16T03:22:16.024Z,99.10
2022-11-16T03:23:13.066Z,99.29
2022-11-16T03:24:09.836Z,99.42
2022-11-16T03:25:06.786Z,99.67
2022-11-16T03:26:06.130Z,99.82
2022-11-16T03:27:08.342Z,99.23
2022-11-16T03:28:10.872Z,99.98
2022-11-16T03:29:13.743Z,99.51
2022-11-16T03:30:13.032Z,99.18
2022-11-16T03:31:13.154Z,99.04
2022-11-16T03:32:20.702Z,98.91
2022-11-16T03:33:17.189Z,98.81
2022-11-16T03:34:16.291Z,98.78
2022-11-16T03:35:17.843Z,99.53
2022-11-16T03:36:21.944Z,99.75
2022-11-16T03:37:19.055Z,100.00
2022-11-16T03:38:16.078Z,100.00
2022-11-16T03:39:16.809Z,100.00
2022-11-16T03:40:14.086Z,100.00
2022-11-16T03:41:11.330Z,100.00
2022-11-16T03:42:11.136Z,100.00
2022-11-16T03:43:08.481Z,100.00
2022-11-16T03:44:05.791Z,100.00
2022-11-16T03:45:03.070Z,100.00
2022-11-16T03:45:59.726Z,100.00
2022-11-16T03:46:56.266Z,100.00
2022-11-16T03:47:52.722Z,100.00
2022-11-16T03:48:55.651Z,100.00
2022-11-16T03:49:52.100Z,100.00
2022-11-16T03:50:48.680Z,100.00
2022-11-16T03:51:45.167Z,100.00
2022-11-16T03:52:41.679Z,100.00
2022-11-16T03:53:38.138Z,100.00
2022-11-16T03:54:34.613Z,99.69
2022-11-16T03:55:31.122Z,99.79
2022-11-16T03:56:27.608Z,99.15
2022-11-16T03:57:24.245Z,98.95
2022-11-16T03:58:20.672Z,98.69
2022-11-16T03:59:17.115Z,98.66
2022-11-16T04:00:13.688Z,98.63
2022-11-16T04:01:10.219Z,98.57
2022-11-16T04:02:06.731Z,98.04
2022-11-16T04:03:03.188Z,98.36
2022-11-16T04:03:59.629Z,98.21
2022-11-16T04:05:14.978Z,98.49
2022-11-16T04:06:30.519Z,98.28
2022-11-16T04:07:45.513Z,97.92
2022-11-16T04:09:00.540Z,98.38
2022-11-16T04:10:15.824Z,98.26
2022-11-16T04:11:35.222Z,98.91
2022-11-16T04:12:50.684Z,99.67
2022-11-16T04:14:09.132Z,100.00
2022-11-16T04:15:27.861Z,100.00
2022-11-16T04:16:43.170Z,100.00
2022-11-16T04:17:58.486Z,100.00
2022-11-16T04:19:13.587Z,99.95
2022-11-16T04:20:32.459Z,99.95
2022-11-16T04:21:48.815Z,99.97
2022-11-16T04:23:12.451Z,99.07
2022-11-16T04:24:17.185Z,98.54
2022-11-16T04:25:20.445Z,98.29
2022-11-16T04:26:16.927Z,98.46
2022-11-16T04:27:33.485Z,98.20
2022-11-16T04:28:32.096Z,97.42
2022-11-16T04:29:29.383Z,97.83
2022-11-16T04:30:26.222Z,97.57
2022-11-16T04:31:41.445Z,97.08
2022-11-16T04:32:56.635Z,97.81
2022-11-16T04:34:11.884Z,98.39
2022-11-16T04:35:47.145Z,98.14
2022-11-16T04:37:02.338Z,98.53
2022-11-16T04:37:59.534Z,98.42
2022-11-16T04:38:56.056Z,98.44
2022-11-16T04:39:52.467Z,98.97
2022-11-16T04:40:49.027Z,98.97
2022-11-16T04:42:04.201Z,99.53
2022-11-16T04:43:03.324Z,99.37
2022-11-16T04:43:59.834Z,99.81
2022-11-16T04:45:14.946Z,100.00
2022-11-16T04:46:30.095Z,99.62
2022-11-16T04:47:26.566Z,99.88
2022-11-16T04:48:23.115Z,99.78
2022-11-16T04:49:19.544Z,99.44
2022-11-16T04:50:16.269Z,99.81
2022-11-16T04:51:12.714Z,100.00
2022-11-16T04:52:09.169Z,99.93
2022-11-16T04:53:05.848Z,100.00
2022-11-16T04:54:02.364Z,100.00
2022-11-16T04:54:58.820Z,100.00
2022-11-16T04:56:00.491Z,99.92
2022-11-16T04:56:57.384Z,99.74
2022-11-16T04:57:54.267Z,99.83
2022-11-16T04:58:50.715Z,100.00
2022-11-16T04:59:47.185Z,99.61
2022-11-16T05:00:43.648Z,99.66
2022-11-16T05:01:58.636Z,99.63
2022-11-16T05:03:00.767Z,99.03
2022-11-16T05:03:57.860Z,99.13
2022-11-16T05:04:54.370Z,99.69
2022-11-16T05:05:50.868Z,99.41
2022-11-16T05:06:47.782Z,99.10
2022-11-16T05:07:44.413Z,99.61
2022-11-16T05:08:40.865Z,99.48
2022-11-16T05:09:43.087Z,99.64
2022-11-16T05:10:39.729Z,98.82
2022-11-16T05:11:36.176Z,98.42
2022-11-16T05:12:32.795Z,98.24
2022-11-16T05:13:29.894Z,98.77
2022-11-16T05:14:26.362Z,98.83
2022-11-16T05:15:22.913Z,98.54
2022-11-16T05:16:19.393Z,98.95
2022-11-16T05:17:16.291Z,98.64
2022-11-16T05:18:12.723Z,98.16
2022-11-16T05:19:27.602Z,98.55
2022-11-16T05:20:42.816Z,98.93
2022-11-16T05:21:39.331Z,98.39
2022-11-16T05:22:36.091Z,99.02
2022-11-16T05:23:51.410Z,98.81
2022-11-16T05:24:47.891Z,98.50
2022-11-16T05:25:44.370Z,98.51
2022-11-16T05:26:40.791Z,98.38
2022-11-16T05:27:37.567Z,98.83
2022-11-16T05:28:34.362Z,98.79
2022-11-16T05:29:31.555Z,98.55
2022-11-16T05:30:29.706Z,98.10
2022-11-16T05:31:26.147Z,98.23
2022-11-16T05:32:23.176Z,98.77
2022-11-16T05:33:19.649Z,98.58
2022-11-16T05:34:16.176Z,98.57
2022-11-16T05:35:12.720Z,98.33
2022-11-16T05:36:09.455Z,98.85
2022-11-16T05:37:06.149Z,98.75
2022-11-16T05:38:02.642Z,98.11
2022-11-16T05:38:59.090Z,98.38
2022-11-16T05:39:56.910Z,98.30
2022-11-16T05:40:53.452Z,98.98
2022-11-16T05:41:50.458Z,98.16
2022-11-16T05:42:46.895Z,98.69
2022-11-16T05:43:43.377Z,98.63
2022-11-16T05:44:39.944Z,98.43
2022-11-16T05:45:36.503Z,97.96
2022-11-16T05:46:33.127Z,98.84
2022-11-16T05:47:29.684Z,98.89
2022-11-16T05:48:26.116Z,98.98
2022-11-16T05:49:23.041Z,99.14
2022-11-16T05:50:19.508Z,98.95
2022-11-16T05:51:15.980Z,98.96
2022-11-16T05:52:12.437Z,98.53
2022-11-16T05:53:08.943Z,98.14
2022-11-16T05:54:05.896Z,98.37
2022-11-16T05:55:02.383Z,97.95
2022-11-16T05:55:58.978Z,97.51
2022-11-16T05:56:55.610Z,96.95
2022-11-16T05:57:52.066Z,97.33
2022-11-16T05:58:48.583Z,97.40
2022-11-16T05:59:45.134Z,97.70
2022-11-16T06:00:41.604Z,97.35
2022-11-16T06:01:38.575Z,97.69
2022-11-16T06:02:35.020Z,97.40
2022-11-16T06:03:31.584Z,96.96
2022-11-16T06:04:28.128Z,96.54
2022-11-16T06:05:24.634Z,96.80
2022-11-16T06:06:21.208Z,96.49
2022-11-16T06:07:17.746Z,96.42
2022-11-16T06:08:14.274Z,96.71
2022-11-16T06:09:11.863Z,97.16
2022-11-16T06:10:08.478Z,96.22
2022-11-16T06:11:05.884Z,95.44
2022-11-16T06:12:02.556Z,95.63
2022-11-16T06:12:58.978Z,95.43
2022-11-16T06:13:55.498Z,96.41
2022-11-16T06:14:51.961Z,96.45
2022-11-16T06:15:54.153Z,96.40
2022-11-16T06:16:50.596Z,96.22
2022-11-16T06:17:47.247Z,96.77
2022-11-16T06:18:45.109Z,96.88
2022-11-16T06:19:41.900Z,96.71
2022-11-16T06:20:39.396Z,96.90
2022-11-16T06:21:35.835Z,96.81
2022-11-16T06:22:32.374Z,96.96
2022-11-16T06:23:28.833Z,96.35
2022-11-16T06:24:25.702Z,96.06
2022-11-16T06:25:22.140Z,95.52
2022-11-16T06:26:18.623Z,95.88
2022-11-16T06:27:16.053Z,96.01
2022-11-16T06:28:12.884Z,96.49
2022-11-16T06:29:09.378Z,95.41
2022-11-16T06:30:06.680Z,96.26
2022-11-16T06:31:03.401Z,95.56
2022-11-16T06:32:00.025Z,95.77
2022-11-16T06:32:56.598Z,96.20
2022-11-16T06:33:53.074Z,96.13
2022-11-16T06:34:49.527Z,95.98
2022-11-16T06:35:46.080Z,96.16
2022-11-16T06:36:42.523Z,95.68
2022-11-16T06:37:39.030Z,96.08
2022-11-16T06:38:35.689Z,96.14
2022-11-16T06:39:32.325Z,95.77
2022-11-16T06:40:33.217Z,95.42
2022-11-16T06:41:29.762Z,95.35
2022-11-16T06:42:26.192Z,95.07
2022-11-16T06:43:23.023Z,94.21
2022-11-16T06:44:19.465Z,94.61
2022-11-16T06:45:16.126Z,94.42
2022-11-16T06:46:12.695Z,94.21
2022-11-16T06:47:09.226Z,94.54
2022-11-16T06:48:05.686Z,95.08
2022-11-16T06:49:02.151Z,95.71
2022-11-16T06:49:58.624Z,95.52
2022-11-16T06:50:55.112Z,95.65
2022-11-16T06:51:51.713Z,95.78
2022-11-16T06:52:49.158Z,95.34
2022-11-16T06:54:59.625Z,96.11
2022-11-16T06:56:00.270Z,95.45
2022-11-16T06:56:56.756Z,95.95
2022-11-16T06:57:53.291Z,95.78
2022-11-16T06:58:53.322Z,95.42
2022-11-16T06:59:50.200Z,96.17
2022-11-16T07:00:46.691Z,96.77
2022-11-16T07:01:43.265Z,97.14
2022-11-16T07:02:40.112Z,97.48
2022-11-16T07:03:36.658Z,97.40
2022-11-16T07:04:33.158Z,97.68
2022-11-16T07:05:30.016Z,96.74
2022-11-16T07:06:26.427Z,97.18
2022-11-16T07:07:22.993Z,95.92
2022-11-16T07:08:19.613Z,96.17
2022-11-16T07:09:16.096Z,95.91
2022-11-16T07:10:13.070Z,95.86
2022-11-16T07:11:10.318Z,95.79
2022-11-16T07:12:06.922Z,95.94
2022-11-16T07:13:03.749Z,95.45
2022-11-16T07:14:00.466Z,94.99
2022-11-16T07:14:56.989Z,95.18
2022-11-16T07:15:53.413Z,95.08
2022-11-16T07:16:53.667Z,94.17
2022-11-16T07:17:52.868Z,93.85
2022-11-16T07:18:49.334Z,93.26
2022-11-16T07:19:45.895Z,93.15
2022-11-16T07:20:42.345Z,93.42
2022-11-16T07:21:38.828Z,93.25
2022-11-16T07:22:35.279Z,93.85
2022-11-16T07:23:31.782Z,93.78
2022-11-16T07:24:28.231Z,93.46
2022-11-16T07:25:24.720Z,93.58
2022-11-16T07:26:21.230Z,93.74
2022-11-16T07:27:17.727Z,93.47
2022-11-16T07:28:14.416Z,92.76
2022-11-16T07:29:10.859Z,93.14
2022-11-16T07:30:07.621Z,93.15
2022-11-16T07:31:05.069Z,93.03
2022-11-16T07:32:01.604Z,92.33
2022-11-16T07:32:59.156Z,92.08
2022-11-16T07:33:55.609Z,92.20
2022-11-16T07:34:52.060Z,92.04
2022-11-16T07:35:48.559Z,91.53
2022-11-16T07:36:45.093Z,91.77
2022-11-16T07:37:41.586Z,91.41
2022-11-16T07:38:38.325Z,91.87
2022-11-16T07:39:34.896Z,92.03
2022-11-16T07:40:31.383Z,92.63
2022-11-16T07:41:27.906Z,93.24
2022-11-16T07:42:24.377Z,93.05
2022-11-16T07:43:20.848Z,91.87
2022-11-16T07:44:17.405Z,90.79
2022-11-16T07:45:14.002Z,90.92
2022-11-16T07:47:28.182Z,91.25
2022-11-16T07:48:24.928Z,91.44
2022-11-16T07:49:21.440Z,90.29
2022-11-16T07:50:17.953Z,90.28
2022-11-16T07:51:15.449Z,91.38
2022-11-16T07:52:11.936Z,91.44
2022-11-16T07:53:08.373Z,91.61
2022-11-16T07:54:06.503Z,91.99
2022-11-16T07:55:03.041Z,91.91
2022-11-16T07:55:59.835Z,91.74
2022-11-16T07:56:56.284Z,92.05
2022-11-16T07:57:53.628Z,92.01
2022-11-16T07:58:50.576Z,92.01
2022-11-16T07:59:47.224Z,91.81
2022-11-16T08:00:43.695Z,91.43
2022-11-16T08:01:40.271Z,91.46
2022-11-16T08:02:36.833Z,91.59
2022-11-16T08:03:33.871Z,92.22
2022-11-16T08:04:30.341Z,91.86
2022-11-16T08:05:26.804Z,91.60
2022-11-16T08:06:24.898Z,91.63
2022-11-16T08:07:21.516Z,92.08
2022-11-16T08:08:17.972Z,91.79
2022-11-16T08:09:14.517Z,91.58
2022-11-16T08:10:11.044Z,91.38
2022-11-16T08:11:09.177Z,91.42
2022-11-16T08:12:05.715Z,90.74
2022-11-16T08:13:02.508Z,90.99
2022-11-16T08:13:59.003Z,90.94
2022-11-16T08:14:55.469Z,90.94
2022-11-16T08:15:52.096Z,91.13
2022-11-16T08:16:48.678Z,90.66
2022-11-16T08:17:45.142Z,90.93
2022-11-16T08:18:42.202Z,90.71
2022-11-16T08:19:40.196Z,90.09
2022-11-16T08:20:36.803Z,90.31
2022-11-16T08:21:33.292Z,90.45
2022-11-16T08:22:29.784Z,90.13
2022-11-16T08:23:26.313Z,88.95
2022-11-16T08:24:22.785Z,89.29
2022-11-16T08:25:19.207Z,89.08
2022-11-16T08:26:16.864Z,88.48
2022-11-16T08:27:15.410Z,88.34
2022-11-16T08:28:11.999Z,88.87
2022-11-16T08:29:08.542Z,88.97
2022-11-16T08:30:09.810Z,88.28
2022-11-16T08:31:16.491Z,87.69
2022-11-16T08:32:13.067Z,88.05
2022-11-16T08:33:10.296Z,88.96
2022-11-16T08:34:06.723Z,88.15
2022-11-16T08:35:03.262Z,88.77
2022-11-16T08:36:06.184Z,88.71
2022-11-16T08:37:06.559Z,88.45
2022-11-16T08:38:03.131Z,89.27
2022-11-16T08:38:59.651Z,89.70
2022-11-16T08:39:56.224Z,88.55
2022-11-16T08:40:55.879Z,87.78
2022-11-16T08:41:52.367Z,87.83
2022-11-16T08:42:48.849Z,88.00
2022-11-16T08:43:47.199Z,88.12
2022-11-16T08:44:43.683Z,88.42
2022-11-16T08:45:40.363Z,88.10
2022-11-16T08:46:36.804Z,88.27
2022-11-16T08:47:33.243Z,88.08
2022-11-16T08:48:29.861Z,88.31
2022-11-16T08:49:28.948Z,87.31
2022-11-16T08:50:25.631Z,86.96
2022-11-16T08:52:36.319Z,86.49
2022-11-16T08:53:32.812Z,86.15
2022-11-16T08:54:29.613Z,86.62
2022-11-16T08:55:26.095Z,85.98
2022-11-16T08:56:22.703Z,83.80
2022-11-16T08:57:19.126Z,82.14
2022-11-16T08:58:15.606Z,83.29
2022-11-16T08:59:12.598Z,84.84
2022-11-16T09:00:09.598Z,84.65
2022-11-16T09:01:25.071Z,84.60
2022-11-16T09:02:25.527Z,83.25
2022-11-16T09:03:22.197Z,83.78
2022-11-16T09:04:18.827Z,84.21
2022-11-16T09:05:16.173Z,84.26
2022-11-16T09:06:13.134Z,83.68
2022-11-16T09:07:10.199Z,84.08
2022-11-16T09:08:06.779Z,84.50
2022-11-16T09:09:03.374Z,84.24
2022-11-16T09:10:00.036Z,83.58
2022-11-16T09:10:56.465Z,84.13
2022-11-16T09:11:54.828Z,83.19
2022-11-16T09:12:51.418Z,84.23
2022-11-16T09:13:48.754Z,84.75
2022-11-16T09:14:45.220Z,84.36
2022-11-16T09:15:41.663Z,83.86
2022-11-16T09:16:38.132Z,84.09
2022-11-16T09:17:34.638Z,83.54
2022-11-16T09:18:31.842Z,83.38
2022-11-16T09:19:28.633Z,84.42
2022-11-16T09:20:26.415Z,85.41
2022-11-16T09:21:24.718Z,85.58
2022-11-16T09:22:21.199Z,86.00
2022-11-16T09:23:22.283Z,85.48
2022-11-16T09:24:21.509Z,85.04
2022-11-16T09:25:19.143Z,85.11
2022-11-16T09:26:16.591Z,84.73
2022-11-16T09:27:13.120Z,84.99
2022-11-16T09:28:09.671Z,84.74
2022-11-16T09:29:06.170Z,83.21
2022-11-16T09:30:02.649Z,80.93
2022-11-16T09:31:02.994Z,79.52
2022-11-16T09:31:59.457Z,80.60
2022-11-16T09:32:58.028Z,81.93
2022-11-16T09:33:58.180Z,82.41
2022-11-16T09:34:54.653Z,81.28
2022-11-16T09:35:51.085Z,81.07
2022-11-16T09:36:47.595Z,81.42
2022-11-16T09:37:44.325Z,81.95
2022-11-16T09:39:13.311Z,82.23
2022-11-16T09:41:54.020Z,79.87
2022-11-16T09:42:50.506Z,81.45
2022-11-16T09:43:51.116Z,82.47
2022-11-16T09:44:56.593Z,82.98
2022-11-16T09:45:58.676Z,84.30
2022-11-16T09:46:59.518Z,84.27
2022-11-16T09:48:02.372Z,85.03
2022-11-16T09:49:00.615Z,85.41
2022-11-16T09:50:03.642Z,85.45
2022-11-16T09:51:02.935Z,85.76
2022-11-16T09:52:04.678Z,86.23
2022-11-16T09:53:22.911Z,87.04
2022-11-16T09:54:22.359Z,86.68
2022-11-16T09:55:24.925Z,85.23
2022-11-16T09:56:22.793Z,84.64
2022-11-16T09:57:22.185Z,84.57
2022-11-16T09:58:22.220Z,84.75
2022-11-16T09:59:23.368Z,85.02
2022-11-16T10:00:22.984Z,84.70
2022-11-16T10:01:26.467Z,84.73
2022-11-16T10:02:43.258Z,84.46
2022-11-16T10:03:42.745Z,84.13
2022-11-16T10:04:43.739Z,83.17
2022-11-16T10:05:55.578Z,82.87
2022-11-16T10:06:57.761Z,83.78
2022-11-16T10:08:04.559Z,83.51
2022-11-16T10:09:00.987Z,82.87
2022-11-16T10:09:57.785Z,83.01
2022-11-16T10:10:54.217Z,80.79
2022-11-16T10:11:50.672Z,79.97
2022-11-16T10:13:03.531Z,79.77
2022-11-16T10:14:06.654Z,80.23
2022-11-16T10:15:23.562Z,80.99
2022-11-16T10:16:26.140Z,79.53
2022-11-16T10:17:37.353Z,79.57
2022-11-16T10:18:51.412Z,79.98
2022-11-16T10:19:55.984Z,79.58
2022-11-16T10:21:10.954Z,79.55
2022-11-16T10:22:22.624Z,78.56
2022-11-16T10:23:37.329Z,77.88
2022-11-16T10:24:34.271Z,77.88
2022-11-16T10:25:54.388Z,76.38
2022-11-16T10:26:55.260Z,76.22
2022-11-16T10:28:00.753Z,75.51
2022-11-16T10:29:15.949Z,74.03
2022-11-16T10:30:16.939Z,73.52
2022-11-16T10:31:30.984Z,72.73
2022-11-16T10:32:36.863Z,71.84
2022-11-16T10:33:37.055Z,72.08
2022-11-16T10:34:45.641Z,72.40
2022-11-16T10:35:44.395Z,73.01
2022-11-16T10:36:40.882Z,71.67
2022-11-16T10:37:39.420Z,72.73
2022-11-16T10:38:36.538Z,73.22
2022-11-16T10:39:34.115Z,72.54
2022-11-16T10:40:35.987Z,72.17
2022-11-16T10:41:43.829Z,71.15
2022-11-16T10:42:40.335Z,70.06
2022-11-16T10:43:37.298Z,69.29
2022-11-16T10:45:06.323Z,69.12
2022-11-16T10:46:02.762Z,67.70
2022-11-16T10:47:19.480Z,68.33
2022-11-16T10:48:23.041Z,70.51
2022-11-16T10:49:24.054Z,68.72
2022-11-16T10:50:23.351Z,68.02
2022-11-16T10:51:19.813Z,67.57
2022-11-16T10:52:16.339Z,67.16
2022-11-16T10:53:14.646Z,66.26
2022-11-16T10:54:15.112Z,66.69
2022-11-16T10:55:15.191Z,67.42
2022-11-16T10:56:30.207Z,68.05
2022-11-16T10:57:46.594Z,64.96
2022-11-16T10:58:54.361Z,64.07
2022-11-16T10:59:55.315Z,63.74
2022-11-16T11:00:52.038Z,63.32
2022-11-16T11:02:08.103Z,64.69
2022-11-16T11:03:04.615Z,62.62
2022-11-16T11:04:21.994Z,62.45
2022-11-16T11:05:20.161Z,63.28
2022-11-16T11:06:16.763Z,64.92
2022-11-16T11:07:29.469Z,64.13
2022-11-16T11:08:27.997Z,63.96
2022-11-16T11:09:26.710Z,62.50
2022-11-16T11:10:29.035Z,63.00
2022-11-16T11:11:44.295Z,62.21
2022-11-16T11:12:41.184Z,62.25
2022-11-16T11:13:38.058Z,61.71
2022-11-16T11:14:35.980Z,61.45
2022-11-16T11:15:32.707Z,62.94
2022-11-16T11:16:29.191Z,64.10
2022-11-16T11:17:25.988Z,63.40
2022-11-16T11:18:27.688Z,63.46
2022-11-16T11:19:24.128Z,63.99
2022-11-16T11:20:23.669Z,63.08
2022-11-16T11:21:21.922Z,63.97
2022-11-16T11:22:18.411Z,62.70
2022-11-16T11:23:16.848Z,62.80
2022-11-16T11:24:43.308Z,62.21
2022-11-16T11:25:42.404Z,61.50
2022-11-16T11:26:40.943Z,61.93
2022-11-16T11:27:37.565Z,63.29
2022-11-16T11:28:35.392Z,63.29
2022-11-16T11:29:32.919Z,61.98
2022-11-16T11:30:29.683Z,62.71
2022-11-16T11:31:34.382Z,62.80
2022-11-16T11:32:32.346Z,63.12
2022-11-16T11:33:31.316Z,62.53
2022-11-16T11:34:29.870Z,63.22
2022-11-16T11:35:31.108Z,61.92
2022-11-16T11:36:39.411Z,62.19
2022-11-16T11:37:37.161Z,63.39
2022-11-16T11:38:34.698Z,63.66
2022-11-16T11:40:56.071Z,64.82
2022-11-16T11:42:06.618Z,65.70
2022-11-16T11:43:04.441Z,65.39
2022-11-16T11:44:05.695Z,65.56
2022-11-16T11:45:15.172Z,65.42
2022-11-16T11:46:23.088Z,67.42
2022-11-16T11:47:55.479Z,67.96
2022-11-16T11:48:47.967Z,68.78
2022-11-16T11:49:52.284Z,67.88
2022-11-16T11:50:53.116Z,68.18
2022-11-16T11:51:50.091Z,67.55
2022-11-16T11:53:25.060Z,68.18
2022-11-16T11:54:28.746Z,67.80
2022-11-16T11:55:25.373Z,68.08
2022-11-16T11:56:22.541Z,68.93
2022-11-16T11:57:22.242Z,68.72
2022-11-16T11:58:19.364Z,68.42
2022-11-16T11:59:18.815Z,68.16
2022-11-16T12:00:15.655Z,68.85
2022-11-16T12:01:25.242Z,67.82
2022-11-16T12:02:22.231Z,67.85
2022-11-16T12:03:21.628Z,67.44
2022-11-16T12:04:36.904Z,67.15
2022-11-16T12:05:39.309Z,67.42
2022-11-16T12:06:43.591Z,67.18
2022-11-16T12:07:59.277Z,67.03
2022-11-16T12:08:55.731Z,66.01
2022-11-16T12:09:57.937Z,66.04
2022-11-16T12:11:00.190Z,66.07
2022-11-16T12:11:56.725Z,65.66
2022-11-16T12:13:12.159Z,65.66
2022-11-16T12:14:11.671Z,65.96
2022-11-16T12:15:23.478Z,66.40
2022-11-16T12:16:28.900Z,66.61
2022-11-16T12:17:28.345Z,66.35
2022-11-16T12:18:24.847Z,66.95
2022-11-16T12:19:40.198Z,66.89
2022-11-16T12:20:42.535Z,68.11
2022-11-16T12:22:01.981Z,68.81
2022-11-16T12:23:10.352Z,68.38
2022-11-16T12:24:19.688Z,69.32
2022-11-16T12:25:19.162Z,69.05
2022-11-16T12:26:29.903Z,70.22
2022-11-16T12:27:29.451Z,69.10
2022-11-16T12:28:35.132Z,69.37
2022-11-16T12:29:40.872Z,69.94
2022-11-16T12:30:45.247Z,69.65
2022-11-16T12:31:41.707Z,69.48
2022-11-16T12:32:49.563Z,70.02
2022-11-16T12:34:02.718Z,70.00
2022-11-16T12:35:05.458Z,69.97
2022-11-16T12:36:12.169Z,69.93
2022-11-16T12:37:08.608Z,69.50
2022-11-16T12:38:20.550Z,69.67
2022-11-16T12:39:24.420Z,69.76
2022-11-16T12:40:27.352Z,70.07
2022-11-16T12:41:26.848Z,69.47
2022-11-16T12:42:38.445Z,69.55
2022-11-16T12:43:50.090Z,69.94
2022-11-16T12:44:46.545Z,69.78
2022-11-16T12:45:49.263Z,70.02
2022-11-16T12:47:04.524Z,69.92
2022-11-16T12:48:19.639Z,70.25
2022-11-16T12:49:28.399Z,69.97
2022-11-16T12:50:34.153Z,70.55
2022-11-16T12:51:53.673Z,70.86
2022-11-16T12:53:05.189Z,71.38
2022-11-16T12:54:24.744Z,70.92
2022-11-16T12:55:26.315Z,70.68
2022-11-16T12:56:45.989Z,71.49
2022-11-16T12:57:45.287Z,71.39